createdAt,value
2023-04-23T00:01:58.819Z,11.90
2023-04-23T00:04:26.458Z,16.03
2023-04-23T00:06:53.355Z,11.43
2023-04-23T00:09:21.478Z,12.07
2023-04-23T00:11:48.335Z,12.23
2023-04-23T00:14:16.099Z,15.77
2023-04-23T00:16:43.039Z,16.00
2023-04-23T00:19:09.821Z,14.80
2023-04-23T00:21:36.497Z,14.80
2023-04-23T00:24:03.215Z,16.50
2023-04-23T00:26:29.773Z,18.13
2023-04-23T00:28:56.434Z,16.17
2023-04-23T00:31:24.311Z,15.63
2023-04-23T00:33:50.920Z,19.40
2023-04-23T00:36:17.514Z,16.60
2023-04-23T00:38:44.317Z,21.20
2023-04-23T00:41:11.669Z,23.73
2023-04-23T00:43:38.262Z,26.57
2023-04-23T00:46:05.293Z,40.90
2023-04-23T00:48:32.195Z,40.10
2023-04-23T00:51:08.206Z,24.73
2023-04-23T00:53:34.847Z,20.07
2023-04-23T00:56:02.522Z,18.20
2023-04-23T00:58:29.978Z,20.53
2023-04-23T01:00:56.944Z,21.70
2023-04-23T01:03:25.606Z,14.97
2023-04-23T01:05:52.576Z,16.73
2023-04-23T01:08:19.486Z,16.27
2023-04-23T01:10:47.531Z,16.30
2023-04-23T01:13:14.541Z,16.30
2023-04-23T01:15:41.413Z,21.67
2023-04-23T01:18:08.264Z,18.17
2023-04-23T01:20:35.539Z,23.73
2023-04-23T01:23:06.159Z,23.53
2023-04-23T01:25:32.742Z,18.70
2023-04-23T01:27:59.581Z,20.47
2023-04-23T01:30:27.139Z,20.67
2023-04-23T01:32:56.947Z,19.70
2023-04-23T01:35:24.325Z,17.27
2023-04-23T01:37:54.261Z,15.23
2023-04-23T01:40:21.320Z,15.00
2023-04-23T01:42:48.531Z,11.33
2023-04-23T01:45:15.633Z,11.70
2023-04-23T01:47:42.336Z,13.13
2023-04-23T01:50:09.508Z,11.60
2023-04-23T01:52:36.506Z,9.27
2023-04-23T01:55:03.577Z,13.77
2023-04-23T01:57:30.614Z,11.00
2023-04-23T02:00:08.141Z,15.37
2023-04-23T02:02:39.721Z,12.90
2023-04-23T02:05:18.633Z,13.07
2023-04-23T02:07:48.084Z,17.17
2023-04-23T02:10:14.957Z,16.63
2023-04-23T02:12:41.908Z,15.13
2023-04-23T02:15:10.052Z,11.70
2023-04-23T02:17:36.685Z,18.43
2023-04-23T02:20:03.890Z,19.03
2023-04-23T02:22:31.683Z,19.27
2023-04-23T02:24:58.714Z,17.20
2023-04-23T02:27:25.904Z,13.07
2023-04-23T02:29:53.548Z,13.47
2023-04-23T02:32:20.316Z,11.93
2023-04-23T02:34:46.961Z,8.60
2023-04-23T02:37:13.594Z,11.13
2023-04-23T02:39:40.194Z,10.47
2023-04-23T02:42:07.278Z,9.90
2023-04-23T02:44:33.828Z,9.93
2023-04-23T02:47:00.689Z,7.87
2023-04-23T02:49:27.374Z,7.17
2023-04-23T02:51:53.971Z,10.43
2023-04-23T02:54:20.637Z,13.83
2023-04-23T02:56:47.246Z,11.47
2023-04-23T02:59:14.014Z,11.27
2023-04-23T03:01:41.416Z,15.63
2023-04-23T03:04:08.284Z,14.33
2023-04-23T03:06:35.822Z,11.23
2023-04-23T03:09:02.447Z,12.67
2023-04-23T03:11:29.028Z,14.37
2023-04-23T03:13:55.647Z,15.23
2023-04-23T03:16:22.342Z,12.20
2023-04-23T03:18:49.048Z,24.00
2023-04-23T03:21:15.670Z,18.43
2023-04-23T03:23:42.263Z,16.50
2023-04-23T03:26:09.262Z,15.47
2023-04-23T03:28:35.957Z,16.17
2023-04-23T03:31:02.593Z,16.13
2023-04-23T03:33:29.209Z,13.37
2023-04-23T03:35:55.869Z,15.10
2023-04-23T03:38:22.484Z,15.47
2023-04-23T03:40:49.106Z,13.83
2023-04-23T03:43:15.680Z,17.37
2023-04-23T03:45:42.257Z,20.30
2023-04-23T03:48:08.882Z,12.80
2023-04-23T03:50:38.958Z,15.40
2023-04-23T03:53:08.184Z,11.27
2023-04-23T03:55:34.792Z,11.47
2023-04-23T03:58:03.174Z,12.87
2023-04-23T04:00:29.796Z,12.53
2023-04-23T04:02:56.508Z,12.37
2023-04-23T04:05:23.617Z,13.77
2023-04-23T04:07:50.243Z,19.30
2023-04-23T04:10:16.860Z,23.57
2023-04-23T04:12:45.064Z,17.03
2023-04-23T04:15:11.912Z,16.53
2023-04-23T04:17:38.908Z,17.27
2023-04-23T04:20:08.377Z,17.80
2023-04-23T04:22:35.034Z,15.10
2023-04-23T04:25:01.702Z,19.73
2023-04-23T04:27:28.357Z,15.50
2023-04-23T04:29:54.980Z,12.70
2023-04-23T04:32:22.322Z,14.13
2023-04-23T04:34:50.158Z,10.67
2023-04-23T04:37:17.145Z,11.57
2023-04-23T04:39:44.155Z,13.63
2023-04-23T04:42:10.798Z,15.27
2023-04-23T04:44:37.745Z,10.23
2023-04-23T04:47:05.204Z,10.17
2023-04-23T04:49:32.198Z,11.70
2023-04-23T04:51:58.798Z,10.27
2023-04-23T04:54:25.463Z,8.53
2023-04-23T04:56:52.026Z,11.07
2023-04-23T04:59:18.696Z,8.03
2023-04-23T05:01:45.717Z,11.83
2023-04-23T05:04:12.541Z,12.60
2023-04-23T05:06:39.309Z,16.23
2023-04-23T05:09:05.904Z,13.20
2023-04-23T05:11:32.605Z,14.87
2023-04-23T05:13:59.197Z,9.43
2023-04-23T05:16:25.856Z,10.40
2023-04-23T05:18:52.565Z,13.17
2023-04-23T05:21:19.660Z,8.23
2023-04-23T05:23:46.312Z,10.43
2023-04-23T05:26:13.006Z,10.80
2023-04-23T05:28:39.665Z,8.67
2023-04-23T05:31:06.431Z,12.80
2023-04-23T05:33:39.147Z,10.40
2023-04-23T05:36:09.450Z,9.83
2023-04-23T05:38:36.142Z,8.00
2023-04-23T05:41:02.892Z,9.77
2023-04-23T05:43:29.491Z,9.17
2023-04-23T05:45:56.192Z,8.13
2023-04-23T05:48:22.869Z,8.37
2023-04-23T05:50:49.687Z,7.97
2023-04-23T05:53:16.287Z,8.60
2023-04-23T05:55:42.886Z,9.27
2023-04-23T05:58:09.488Z,9.07
2023-04-23T06:00:37.138Z,10.10
2023-04-23T06:03:03.998Z,7.63
2023-04-23T06:05:30.699Z,8.70
2023-04-23T06:07:57.341Z,10.83
2023-04-23T06:10:23.962Z,11.50
2023-04-23T06:12:50.766Z,8.50
2023-04-23T06:15:17.469Z,8.83
2023-04-23T06:17:44.106Z,12.40
2023-04-23T06:20:11.957Z,7.33
2023-04-23T06:22:38.913Z,7.13
2023-04-23T06:25:06.009Z,7.20
2023-04-23T06:27:33.810Z,5.80
2023-04-23T06:30:00.524Z,5.80
2023-04-23T06:32:27.165Z,7.33
2023-04-23T06:35:00.841Z,9.43
2023-04-23T06:37:29.698Z,7.33
2023-04-23T06:39:56.733Z,8.50
2023-04-23T06:42:23.452Z,7.17
2023-04-23T06:44:51.963Z,7.73
2023-04-23T06:47:19.403Z,8.87
2023-04-23T06:49:46.081Z,6.57
2023-04-23T06:52:12.849Z,7.50
2023-04-23T06:54:39.684Z,9.30
2023-04-23T06:57:06.770Z,7.50
2023-04-23T06:59:33.425Z,6.13
2023-04-23T07:02:00.961Z,7.13
2023-04-23T07:04:27.739Z,9.83
2023-04-23T07:06:55.125Z,5.53
2023-04-23T07:09:21.900Z,4.73
2023-04-23T07:11:48.541Z,5.83
2023-04-23T07:14:15.169Z,4.93
2023-04-23T07:16:41.871Z,7.53
2023-04-23T07:19:08.483Z,5.87
2023-04-23T07:21:36.025Z,7.37
2023-04-23T07:24:07.264Z,4.90
2023-04-23T07:26:35.030Z,6.23
2023-04-23T07:29:02.267Z,4.83
2023-04-23T07:31:28.925Z,4.57
2023-04-23T07:33:56.277Z,4.90
2023-04-23T07:36:23.016Z,5.97
2023-04-23T07:38:50.942Z,5.07
2023-04-23T07:41:17.897Z,4.23
2023-04-23T07:43:44.572Z,3.80
2023-04-23T07:46:11.168Z,3.47
2023-04-23T07:48:37.770Z,6.07
2023-04-23T07:51:04.453Z,4.37
2023-04-23T07:53:31.289Z,5.53
2023-04-23T07:55:57.904Z,5.20
2023-04-23T07:58:25.284Z,6.53
2023-04-23T08:00:51.935Z,4.33
2023-04-23T08:03:18.771Z,4.50
2023-04-23T08:05:45.622Z,5.47
2023-04-23T08:08:13.081Z,5.37
2023-04-23T08:10:40.072Z,6.73
2023-04-23T08:13:06.712Z,6.53
2023-04-23T08:15:33.260Z,4.63
2023-04-23T08:17:59.941Z,4.00
2023-04-23T08:20:26.891Z,4.23
2023-04-23T08:22:53.861Z,3.80
2023-04-23T08:25:23.187Z,7.13
2023-04-23T08:27:50.126Z,4.70
2023-04-23T08:30:16.721Z,3.50
2023-04-23T08:32:43.333Z,4.70
2023-04-23T08:35:10.302Z,4.33
2023-04-23T08:37:39.037Z,4.37
2023-04-23T08:40:07.604Z,3.13
2023-04-23T08:42:45.115Z,3.67
2023-04-23T08:45:12.619Z,5.00
2023-04-23T08:47:43.532Z,4.80
2023-04-23T08:50:23.329Z,4.60
2023-04-23T08:52:53.968Z,2.87
2023-04-23T08:55:21.783Z,7.30
2023-04-23T08:57:49.761Z,8.20
2023-04-23T09:00:18.778Z,6.70
2023-04-23T09:02:47.555Z,4.27
2023-04-23T09:05:15.036Z,4.03
2023-04-23T09:07:42.043Z,2.10
2023-04-23T09:10:11.410Z,5.47
2023-04-23T09:12:39.703Z,5.67
2023-04-23T09:15:10.755Z,2.40
2023-04-23T09:17:45.160Z,5.50
2023-04-23T09:20:12.971Z,6.00
2023-04-23T09:22:46.585Z,4.57
2023-04-23T09:25:16.452Z,3.70
2023-04-23T09:27:43.462Z,4.57
2023-04-23T09:30:11.861Z,5.50
2023-04-23T09:32:41.591Z,3.33
2023-04-23T09:35:11.022Z,3.63
2023-04-23T09:37:38.933Z,4.43
2023-04-23T09:40:09.624Z,4.60
2023-04-23T09:42:37.323Z,5.90
2023-04-23T09:45:07.421Z,3.17
2023-04-23T09:47:41.451Z,3.37
2023-04-23T09:50:10.754Z,6.30
2023-04-23T09:52:41.056Z,4.20
2023-04-23T09:55:08.650Z,3.03
2023-04-23T09:57:39.556Z,3.63
2023-04-23T10:00:19.913Z,7.53
2023-04-23T10:02:51.480Z,4.27
2023-04-23T10:05:25.915Z,7.03
2023-04-23T10:07:59.693Z,5.83
2023-04-23T10:10:26.741Z,4.60
2023-04-23T10:12:55.896Z,4.40
2023-04-23T10:15:26.959Z,4.40
2023-04-23T10:17:54.415Z,3.90
2023-04-23T10:20:22.338Z,3.83
2023-04-23T10:22:49.362Z,5.80
2023-04-23T10:25:16.404Z,7.07
2023-04-23T10:27:52.063Z,7.10
2023-04-23T10:30:20.981Z,3.73
2023-04-23T10:32:49.514Z,2.70
2023-04-23T10:35:16.645Z,6.70
2023-04-23T10:37:44.962Z,3.63
2023-04-23T10:40:14.679Z,3.77
2023-04-23T10:42:45.514Z,3.67
2023-04-23T10:47:48.413Z,2.77
2023-04-23T10:50:29.275Z,3.90
2023-04-23T10:52:58.091Z,3.40
2023-04-23T10:55:27.632Z,4.30
2023-04-23T10:58:05.428Z,3.60
2023-04-23T11:00:41.187Z,4.23
2023-04-23T11:03:33.158Z,4.17
2023-04-23T11:06:03.716Z,4.23
2023-04-23T11:08:33.757Z,3.63
2023-04-23T11:11:02.514Z,4.23
2023-04-23T11:13:29.982Z,5.03
2023-04-23T11:16:16.465Z,3.70
2023-04-23T11:19:19.095Z,10.33
2023-04-23T11:22:00.178Z,4.33
2023-04-23T11:24:32.562Z,2.77
2023-04-23T11:26:59.881Z,3.60
2023-04-23T11:29:27.758Z,2.60
2023-04-23T11:34:26.248Z,2.87
2023-04-23T11:36:54.728Z,4.07
2023-04-23T11:39:24.786Z,5.33
2023-04-23T11:41:52.859Z,3.30
2023-04-23T11:44:21.314Z,5.23
2023-04-23T11:46:49.600Z,3.10
2023-04-23T11:49:17.554Z,5.87
2023-04-23T11:51:45.024Z,3.60
2023-04-23T11:54:13.776Z,5.93
2023-04-23T11:56:41.385Z,6.63
2023-04-23T11:59:08.321Z,3.53
2023-04-23T12:01:42.685Z,2.83
2023-04-23T12:04:29.991Z,4.03
2023-04-23T12:06:57.788Z,5.33
2023-04-23T12:09:26.346Z,4.37
2023-04-23T12:11:53.526Z,2.97
2023-04-23T12:14:26.995Z,2.83
2023-04-23T12:16:53.804Z,2.97
2023-04-23T12:19:28.450Z,6.87
2023-04-23T12:22:02.614Z,3.50
2023-04-23T12:24:51.390Z,3.87
2023-04-23T12:27:20.563Z,4.87
2023-04-23T12:29:51.373Z,4.07
2023-04-23T12:32:19.374Z,4.17
2023-04-23T12:34:53.470Z,5.70
2023-04-23T12:37:28.646Z,5.70
2023-04-23T12:39:56.818Z,3.93
2023-04-23T12:42:23.675Z,3.33
2023-04-23T12:44:51.693Z,5.70
2023-04-23T12:47:19.754Z,5.63
2023-04-23T12:49:53.284Z,4.47
2023-04-23T12:52:20.482Z,4.20
2023-04-23T12:54:47.149Z,3.83
2023-04-23T12:57:17.446Z,5.93
2023-04-23T12:59:45.664Z,4.50
2023-04-23T13:02:12.424Z,3.67
2023-04-23T13:04:39.044Z,3.47
2023-04-23T13:07:05.720Z,3.57
2023-04-23T13:09:32.373Z,5.33
2023-04-23T13:12:00.142Z,3.90
2023-04-23T13:14:28.115Z,3.80
2023-04-23T13:16:54.825Z,3.90
2023-04-23T13:19:21.445Z,4.57
2023-04-23T13:21:48.071Z,3.27
2023-04-23T13:24:14.641Z,3.73
2023-04-23T13:26:41.376Z,5.00
2023-04-23T13:29:07.968Z,6.63
2023-04-23T13:31:34.619Z,4.63
2023-04-23T13:34:02.978Z,4.67
2023-04-23T13:36:29.880Z,3.30
2023-04-23T13:38:56.540Z,5.63
2023-04-23T13:41:23.178Z,2.80
2023-04-23T13:43:49.872Z,4.83
2023-04-23T13:46:16.837Z,6.43
2023-04-23T13:48:43.572Z,3.67
2023-04-23T13:51:21.782Z,4.40
2023-04-23T13:53:53.108Z,5.47
2023-04-23T13:56:19.787Z,6.97
2023-04-23T13:58:48.346Z,5.57
2023-04-23T14:01:16.092Z,7.33
2023-04-23T14:03:42.714Z,2.77
2023-04-23T14:06:09.370Z,2.83
2023-04-23T14:08:36.909Z,5.00
2023-04-23T14:11:04.570Z,2.40
2023-04-23T14:13:31.947Z,2.20
2023-04-23T14:16:00.110Z,2.63
2023-04-23T14:18:28.744Z,2.83
2023-04-23T14:20:55.385Z,3.40
2023-04-23T14:23:44.370Z,3.00
2023-04-23T14:26:11.023Z,4.30
2023-04-23T14:28:45.784Z,2.87
2023-04-23T14:31:12.530Z,2.63
2023-04-23T14:33:39.172Z,4.10
2023-04-23T14:36:05.885Z,3.90
2023-04-23T14:38:32.475Z,4.22
2023-04-23T14:40:59.134Z,4.07
2023-04-23T14:43:25.929Z,3.73
2023-04-23T14:45:52.620Z,3.97
2023-04-23T14:48:19.246Z,3.20
2023-04-23T14:50:46.169Z,4.33
2023-04-23T14:53:12.862Z,5.73
2023-04-23T14:55:42.836Z,3.53
2023-04-23T14:58:09.701Z,3.57
2023-04-23T15:00:36.299Z,6.00
2023-04-23T15:03:08.480Z,5.07
2023-04-23T15:05:35.240Z,3.87
2023-04-23T15:08:01.812Z,2.80
2023-04-23T15:10:28.463Z,5.37
2023-04-23T15:13:02.678Z,3.13
2023-04-23T15:15:47.383Z,4.33
2023-04-23T15:18:14.828Z,4.33
2023-04-23T15:20:42.381Z,6.80
2023-04-23T15:23:10.034Z,3.23
2023-04-23T15:25:36.996Z,3.70
2023-04-23T15:28:04.047Z,3.20
2023-04-23T15:30:30.662Z,5.23
2023-04-23T15:32:57.636Z,6.30
2023-04-23T15:35:25.764Z,4.73
2023-04-23T15:37:52.474Z,4.73
2023-04-23T15:40:19.140Z,6.40
2023-04-23T15:42:45.809Z,3.27
2023-04-23T15:45:12.770Z,5.57
2023-04-23T15:47:39.935Z,4.23
2023-04-23T15:50:07.096Z,4.70
2023-04-23T15:52:33.868Z,3.20
2023-04-23T15:55:00.975Z,6.23
2023-04-23T15:57:27.561Z,4.63
2023-04-23T15:59:55.750Z,6.00
2023-04-23T16:02:22.719Z,5.87
2023-04-23T16:04:51.269Z,4.77
2023-04-23T16:07:18.051Z,5.03
2023-04-23T16:09:44.706Z,6.70
2023-04-23T16:12:11.410Z,3.23
2023-04-23T16:14:38.318Z,3.47
2023-04-23T16:17:05.005Z,4.57
2023-04-23T16:19:31.733Z,6.00
2023-04-23T16:21:58.707Z,5.30
2023-04-23T16:24:25.470Z,4.20
2023-04-23T16:26:52.122Z,4.30
2023-04-23T16:29:22.483Z,5.13
2023-04-23T16:31:49.914Z,7.60
2023-04-23T16:34:16.951Z,4.90
2023-04-23T16:36:43.697Z,11.20
2023-04-23T16:39:11.510Z,7.70
2023-04-23T16:41:38.396Z,5.53
2023-04-23T16:44:05.057Z,5.03
2023-04-23T16:46:32.102Z,3.87
2023-04-23T16:48:59.162Z,3.70
2023-04-23T16:51:26.918Z,3.17
2023-04-23T16:53:53.932Z,5.70
2023-04-23T16:56:21.146Z,3.30
2023-04-23T16:58:47.803Z,5.87
2023-04-23T17:01:15.698Z,4.77
2023-04-23T17:03:42.778Z,5.20
2023-04-23T17:06:31.280Z,5.57
2023-04-23T17:08:59.699Z,6.23
2023-04-23T17:11:27.142Z,3.07
2023-04-23T17:13:54.798Z,5.10
2023-04-23T17:16:22.053Z,5.23
2023-04-23T17:18:48.998Z,4.10
2023-04-23T17:21:15.661Z,6.23
2023-04-23T17:23:42.305Z,3.70
2023-04-23T17:26:09.180Z,4.37
2023-04-23T17:28:35.833Z,5.50
2023-04-23T17:31:03.308Z,4.93
2023-04-23T17:33:30.137Z,4.97
2023-04-23T17:35:56.834Z,7.00
2023-04-23T17:38:24.713Z,4.80
2023-04-23T17:40:52.602Z,9.23
2023-04-23T17:43:19.409Z,4.30
2023-04-23T17:45:47.589Z,5.20
2023-04-23T17:48:15.023Z,5.93
2023-04-23T17:50:42.250Z,7.13
2023-04-23T17:53:08.998Z,5.57
2023-04-23T17:55:36.116Z,8.67
2023-04-23T17:58:05.661Z,5.23
2023-04-23T18:00:41.769Z,4.63
2023-04-23T18:03:09.975Z,8.83
2023-04-23T18:05:37.759Z,6.37
2023-04-23T18:08:05.483Z,6.03
2023-04-23T18:10:32.223Z,9.17
2023-04-23T18:13:01.217Z,10.77
2023-04-23T18:15:29.114Z,11.23
2023-04-23T18:17:55.966Z,9.67
2023-04-23T18:20:24.969Z,6.27
2023-04-23T18:22:54.286Z,5.43
2023-04-23T18:25:21.086Z,5.73
2023-04-23T18:27:48.616Z,7.43
2023-04-23T18:30:15.514Z,5.90
2023-04-23T18:32:47.580Z,7.90
2023-04-23T18:35:14.442Z,5.50
2023-04-23T18:37:49.150Z,6.10
2023-04-23T18:40:16.032Z,12.30
2023-04-23T18:42:42.627Z,15.97
2023-04-23T18:45:10.706Z,4.87
2023-04-23T18:47:59.414Z,5.83
2023-04-23T18:50:31.770Z,6.00
2023-04-23T18:52:58.510Z,6.67
2023-04-23T18:55:25.239Z,6.10
2023-04-23T18:57:51.993Z,6.00
2023-04-23T19:00:18.617Z,5.70
2023-04-23T19:02:45.355Z,6.47
2023-04-23T19:05:12.071Z,3.77
2023-04-23T19:07:41.301Z,4.67
2023-04-23T19:10:08.927Z,6.27
2023-04-23T19:12:35.630Z,7.33
2023-04-23T19:15:02.192Z,5.13
2023-04-23T19:17:28.885Z,4.47
2023-04-23T19:19:55.630Z,7.20
2023-04-23T19:22:25.104Z,4.53
2023-04-23T19:24:51.702Z,5.00
2023-04-23T19:27:18.338Z,5.47
2023-04-23T19:29:46.497Z,6.33
2023-04-23T19:32:13.156Z,5.57
2023-04-23T19:34:39.988Z,4.07
2023-04-23T19:37:06.736Z,4.90
2023-04-23T19:39:33.339Z,4.07
2023-04-23T19:41:59.930Z,5.93
2023-04-23T19:44:26.796Z,4.17
2023-04-23T19:46:53.515Z,5.13
2023-04-23T19:49:20.213Z,4.07
2023-04-23T19:51:47.166Z,6.37
2023-04-23T19:54:13.754Z,7.17
2023-04-23T19:56:40.397Z,5.30
2023-04-23T19:59:09.716Z,5.23
2023-04-23T20:01:36.323Z,7.27
2023-04-23T20:04:07.035Z,5.67
2023-04-23T20:06:33.824Z,5.80
2023-04-23T20:09:18.794Z,5.60
2023-04-23T20:11:46.167Z,6.07
2023-04-23T20:14:13.217Z,9.27
2023-04-23T20:16:41.273Z,6.13
2023-04-23T20:19:11.318Z,5.93
2023-04-23T20:21:38.988Z,7.00
2023-04-23T20:24:14.766Z,32.97
2023-04-23T20:26:41.951Z,15.17
2023-04-23T20:29:08.617Z,6.30
2023-04-23T20:31:35.309Z,12.23
2023-04-23T20:34:02.326Z,23.80
2023-04-23T20:36:29.629Z,7.80
2023-04-23T20:38:59.106Z,12.17
2023-04-23T20:41:30.690Z,10.43
2023-04-23T20:43:58.501Z,6.27
2023-04-23T20:46:26.068Z,4.83
2023-04-23T20:48:55.633Z,7.23
2023-04-23T20:51:23.302Z,5.97
2023-04-23T20:53:51.018Z,6.00
2023-04-23T20:56:18.172Z,6.20
2023-04-23T20:58:45.041Z,6.43
2023-04-23T21:01:11.746Z,7.60
2023-04-23T21:03:39.363Z,4.37
2023-04-23T21:06:07.865Z,6.90
2023-04-23T21:08:34.808Z,6.83
2023-04-23T21:11:01.853Z,7.23
2023-04-23T21:13:28.805Z,6.33
2023-04-23T21:15:55.479Z,4.70
2023-04-23T21:18:22.121Z,4.10
2023-04-23T21:20:48.764Z,6.40
2023-04-23T21:23:16.021Z,6.03
2023-04-23T21:25:42.629Z,5.17
2023-04-23T21:28:09.550Z,6.27
2023-04-23T21:30:48.534Z,4.53
2023-04-23T21:33:16.057Z,4.83
2023-04-23T21:35:43.345Z,4.53
2023-04-23T21:38:10.515Z,5.50
2023-04-23T21:40:37.862Z,8.20
2023-04-23T21:43:05.348Z,6.10
2023-04-23T21:45:32.154Z,5.80
2023-04-23T21:47:59.034Z,4.63
2023-04-23T21:50:27.583Z,4.60
2023-04-23T21:52:58.361Z,5.53
2023-04-23T21:55:30.960Z,5.57
2023-04-23T21:58:09.693Z,4.50
2023-04-23T22:00:44.698Z,4.87
2023-04-23T22:03:12.317Z,4.90
2023-04-23T22:05:41.788Z,7.07
2023-04-23T22:08:09.741Z,6.73
2023-04-23T22:10:42.991Z,4.83
2023-04-23T22:13:11.218Z,5.43
2023-04-23T22:15:38.386Z,5.97
2023-04-23T22:18:05.493Z,9.93
2023-04-23T22:20:32.278Z,6.73
2023-04-23T22:22:58.957Z,8.30
2023-04-23T22:25:26.727Z,5.93
2023-04-23T22:27:53.430Z,5.50
2023-04-23T22:30:20.740Z,5.87
2023-04-23T22:32:47.511Z,6.73
2023-04-23T22:35:14.199Z,6.53
2023-04-23T22:37:40.913Z,5.00
2023-04-23T22:40:09.661Z,4.47
2023-04-23T22:42:37.511Z,5.13
2023-04-23T22:45:04.948Z,5.93
2023-04-23T22:47:31.913Z,5.73
2023-04-23T22:49:58.958Z,5.97
2023-04-23T22:52:26.111Z,4.80
2023-04-23T22:54:54.947Z,5.63
2023-04-23T22:57:21.635Z,4.70
2023-04-23T22:59:48.230Z,5.83
2023-04-23T23:02:15.956Z,5.57
2023-04-23T23:04:42.709Z,7.23
2023-04-23T23:07:09.605Z,5.87
2023-04-23T23:09:36.253Z,4.93
2023-04-23T23:12:04.296Z,5.70
2023-04-23T23:14:31.972Z,6.30
2023-04-23T23:16:59.059Z,8.27
2023-04-23T23:19:27.137Z,4.03
2023-04-23T23:21:54.121Z,8.50
2023-04-23T23:24:21.761Z,4.37
2023-04-23T23:26:48.459Z,6.87
2023-04-23T23:29:15.036Z,7.00
2023-04-23T23:31:41.772Z,5.47
2023-04-23T23:34:08.963Z,7.30
2023-04-23T23:36:35.697Z,5.53
2023-04-23T23:39:02.307Z,4.23
2023-04-23T23:41:28.999Z,6.17
2023-04-23T23:43:55.598Z,6.83
2023-04-23T23:46:22.700Z,5.17
2023-04-23T23:48:49.493Z,5.47
2023-04-23T23:51:16.313Z,4.00
2023-04-23T23:53:42.985Z,5.23
2023-04-23T23:56:09.619Z,4.27
2023-04-23T23:58:36.494Z,6.63
